Time;durP1;ratioP1;P1;durP2;ratioP2;P2;SDS_P1;SDS_P2;PMS_P1;PMS_P2;Temp;Humidity;BMP_temperature;BMP_pressure;BME280_temperature;BME280_humidity;BME280_pressure;Samples;Min_cycle;Max_cycle;Signal;HPM_P1;HPM_P2
2022/09/14 00:01:10;;;;;;;6.70;4.53;;;;;;;22.18;77.58;97247.91;4143414;28;20644;-85
2022/09/14 00:03:27;;;;;;;5.70;4.90;;;;;;;22.10;78.01;97245.41;4159321;28;21315;-85
2022/09/14 00:05:31;;;;;;;4.97;4.47;;;;;;;22.03;78.36;97236.59;4147110;28;21290;-85
2022/09/14 00:07:34;;;;;;;5.63;4.50;;;;;;;22.00;78.41;97243.09;4157810;28;20683;-85
2022/09/14 00:09:37;;;;;;;6.47;4.77;;;;;;;21.94;78.69;97243.06;4158103;28;21301;-85
2022/09/14 00:11:41;;;;;;;5.73;4.67;;;;;;;21.88;79.78;97231.38;4159926;28;20638;-85
2022/09/14 00:13:46;;;;;;;5.23;4.60;;;;;;;21.85;79.39;97228.31;4139392;28;20669;-85
2022/09/14 00:15:50;;;;;;;6.53;5.00;;;;;;;21.80;79.73;97214.81;4155107;28;20685;-85
2022/09/14 00:17:53;;;;;;;6.70;4.80;;;;;;;21.76;80.03;97213.53;4142949;28;20687;-84
2022/09/14 00:19:56;;;;;;;6.10;5.07;;;;;;;21.72;79.85;97220.25;4170836;28;20628;-85
2022/09/14 00:22:00;;;;;;;5.60;4.83;;;;;;;21.71;80.52;97228.41;4153997;28;20624;-85
2022/09/14 00:24:04;;;;;;;6.67;4.87;;;;;;;21.66;80.32;97222.88;4156679;28;20700;-85
2022/09/14 00:26:09;;;;;;;5.10;4.60;;;;;;;21.66;79.91;97221.03;4142258;28;21231;-85
2022/09/14 00:28:13;;;;;;;5.73;5.23;;;;;;;21.64;80.53;97220.41;4154692;28;20674;-85
2022/09/14 00:30:16;;;;;;;7.70;5.53;;;;;;;21.62;80.69;97206.50;4138616;28;21220;-85
2022/09/14 00:32:19;;;;;;;5.50;4.50;;;;;;;21.60;80.70;97208.50;4155448;28;20636;-85
2022/09/14 00:34:22;;;;;;;6.50;4.60;;;;;;;21.59;81.49;97206.91;4146451;28;20635;-85
2022/09/14 00:36:28;;;;;;;9.20;5.17;;;;;;;21.56;81.98;97203.78;4155439;28;20682;-85
2022/09/14 00:38:31;;;;;;;4.63;4.23;;;;;;;21.56;81.28;97198.47;4156393;28;20651;-85
2022/09/14 00:40:34;;;;;;;4.77;4.37;;;;;;;21.58;80.18;97193.81;4157754;28;21086;-85
2022/09/14 00:42:37;;;;;;;4.50;4.10;;;;;;;21.56;79.20;97188.72;4167310;28;21452;-85
2022/09/14 00:45:07;;;;;;;4.97;4.43;;;;;;;21.59;79.54;97179.50;4147404;28;20710;-85
2022/09/14 00:47:12;;;;;;;4.50;4.10;;;;;;;21.57;78.90;97174.41;4139201;28;20684;-84
2022/09/14 00:49:18;;;;;;;4.70;4.30;;;;;;;21.61;78.77;97161.56;4158445;28;20713;-85
2022/09/14 00:51:22;;;;;;;5.07;3.97;;;;;;;21.62;77.93;97156.06;4138625;28;20640;-85
2022/09/14 00:53:25;;;;;;;5.53;4.30;;;;;;;21.64;78.37;97153.22;4140211;28;20645;-85
2022/09/14 00:55:28;;;;;;;6.63;4.63;;;;;;;21.66;78.16;97146.69;4161431;28;20638;-85
2022/09/14 00:57:36;;;;;;;6.27;4.60;;;;;;;21.68;79.95;97165.06;4141108;28;20796;-85
2022/09/14 00:59:41;;;;;;;5.53;4.67;;;;;;;21.64;80.00;97158.53;4149166;28;21152;-85
2022/09/14 01:01:45;;;;;;;4.73;4.20;;;;;;;21.60;79.68;97159.94;4140147;28;20634;-85
2022/09/14 01:03:48;;;;;;;6.93;5.40;;;;;;;21.59;79.87;97156.47;4135841;28;20653;-86
2022/09/14 01:06:00;;;;;;;6.90;4.10;;;;;;;21.56;79.75;97148.03;4153750;28;20727;-86
2022/09/14 01:08:31;;;;;;;9.73;4.50;;;;;;;21.53;80.45;97148.44;4168489;28;20681;-84
2022/09/14 01:10:44;;;;;;;4.63;4.23;;;;;;;21.50;80.89;97157.63;4144494;28;20731;-85
2022/09/14 01:13:04;;;;;;;5.47;4.30;;;;;;;21.49;81.96;97155.16;4171782;28;20915;-85
2022/09/14 01:15:13;;;;;;;5.27;4.63;;;;;;;21.45;82.27;97152.06;4143769;28;20679;-85
2022/09/14 01:17:21;;;;;;;5.00;4.50;;;;;;;21.45;81.73;97149.41;4137815;28;21101;-85
2022/09/14 01:19:30;;;;;;;8.50;4.70;;;;;;;21.45;82.61;97133.47;4165682;28;22428;-85
2022/09/14 01:21:35;;;;;;;7.20;4.77;;;;;;;21.44;83.68;97129.19;4145699;28;20670;-85
2022/09/14 01:23:43;;;;;;;5.30;4.80;;;;;;;21.42;82.81;97119.75;4134663;28;20649;-84
2022/09/14 01:26:04;;;;;;;5.13;4.60;;;;;;;21.41;82.07;97115.50;4145758;28;20624;-85
2022/09/14 01:28:10;;;;;;;8.07;4.70;;;;;;;21.37;82.74;97112.38;4151952;28;20685;-85
2022/09/14 01:30:18;;;;;;;5.37;4.20;;;;;;;21.36;83.28;97105.47;4145925;28;21239;-85
2022/09/14 01:32:25;;;;;;;5.30;4.80;;;;;;;21.36;83.41;97101.97;4153604;28;20634;-85
2022/09/14 01:34:31;;;;;;;4.63;4.23;;;;;;;21.36;83.18;97105.47;4150335;28;20972;-85
2022/09/14 01:36:35;;;;;;;6.50;4.50;;;;;;;21.34;82.21;97101.34;4175245;28;20633;-85
2022/09/14 01:38:40;;;;;;;7.10;4.53;;;;;;;21.32;80.67;97104.19;4162259;28;20628;-85
2022/09/14 01:40:46;;;;;;;5.50;3.73;;;;;;;21.37;80.02;97115.03;4143493;28;20634;-85
2022/09/14 01:42:51;;;;;;;5.67;4.50;;;;;;;21.43;81.05;97124.06;4152022;28;20965;-85
2022/09/14 01:44:58;;;;;;;5.67;4.13;;;;;;;21.44;81.17;97141.59;4151650;28;20644;-85
2022/09/14 01:47:06;;;;;;;4.80;4.30;;;;;;;21.45;81.45;97161.84;4154865;28;20658;-85
2022/09/14 01:49:14;;;;;;;5.63;4.40;;;;;;;21.45;82.21;97230.84;4134902;28;20635;-85
2022/09/14 01:51:21;;;;;;;4.80;4.40;;;;;;;21.24;81.96;97260.06;4138574;28;20781;-85
2022/09/14 01:53:27;;;;;;;4.17;3.40;;;;;;;21.22;82.05;97261.28;4136772;28;20647;-85
2022/09/14 01:55:34;;;;;;;15.70;6.07;;;;;;;21.27;82.78;97282.75;4150420;28;20690;-84
2022/09/14 01:57:40;;;;;;;9.93;4.97;;;;;;;21.28;84.75;97263.97;4151507;28;20674;-84
2022/09/14 01:59:45;;;;;;;8.90;4.97;;;;;;;21.27;86.39;97240.28;4148174;28;21197;-83
2022/09/14 02:01:51;;;;;;;8.03;4.97;;;;;;;21.21;88.25;97270.22;4136847;28;20635;-84
2022/09/14 02:03:57;;;;;;;9.33;5.70;;;;;;;21.09;90.91;97271.75;4139780;28;20640;-84
2022/09/14 02:06:06;;;;;;;7.20;4.93;;;;;;;20.99;90.94;97276.56;4155503;28;20716;-83
2022/09/14 02:08:09;;;;;;;6.87;4.40;;;;;;;20.96;90.53;97261.03;4168551;28;20662;-83
2022/09/14 02:10:14;;;;;;;7.83;5.07;;;;;;;20.94;91.61;97253.25;4137085;28;20741;-84
2022/09/14 02:12:17;;;;;;;6.87;5.07;;;;;;;20.94;93.00;97258.56;4155037;28;21083;-84
2022/09/14 02:14:20;;;;;;;5.87;5.17;;;;;;;20.94;93.56;97252.41;4136611;28;20689;-84
2022/09/14 02:16:24;;;;;;;7.43;5.33;;;;;;;20.92;94.00;97265.88;4147413;28;21082;-84
2022/09/14 02:18:30;;;;;;;6.70;4.80;;;;;;;20.91;94.61;97268.69;4148728;28;21226;-84
2022/09/14 02:20:39;;;;;;;7.20;4.87;;;;;;;20.91;95.15;97280.16;4140927;28;20697;-84
2022/09/14 02:22:42;;;;;;;6.50;5.10;;;;;;;20.90;94.92;97273.19;4139847;28;20743;-84
2022/09/14 02:24:46;;;;;;;8.63;5.27;;;;;;;20.88;96.11;97263.78;4138310;28;20632;-84
2022/09/14 02:26:51;;;;;;;8.40;5.00;;;;;;;20.85;96.23;97270.28;4151621;28;20674;-84
2022/09/14 02:28:54;;;;;;;6.60;5.00;;;;;;;20.82;96.06;97259.22;4168428;28;20665;-83
2022/09/14 02:31:07;;;;;;;7.30;5.37;;;;;;;20.79;95.83;97264.09;4156343;28;20684;-84
2022/09/14 02:33:16;;;;;;;6.80;4.90;;;;;;;20.71;96.25;97254.41;4154654;28;21077;-84
2022/09/14 02:35:23;;;;;;;8.90;5.10;;;;;;;20.68;95.48;97254.78;4136339;28;20628;-84
2022/09/14 02:37:31;;;;;;;6.20;5.60;;;;;;;20.64;96.31;97247.38;4165767;28;20648;-84
2022/09/14 02:39:40;;;;;;;6.60;5.20;;;;;;;20.57;97.69;97249.94;4135640;28;20791;-84
2022/09/14 02:41:48;;;;;;;9.23;5.97;;;;;;;20.56;96.73;97243.00;4139939;28;21215;-84
2022/09/14 02:43:59;;;;;;;8.17;5.23;;;;;;;20.56;98.26;97236.88;4133475;28;20643;-84
2022/09/14 02:46:07;;;;;;;7.17;5.20;;;;;;;20.54;97.49;97221.16;4157344;28;21280;-84
2022/09/14 02:48:15;;;;;;;8.00;4.67;;;;;;;20.50;97.81;97224.38;4148714;28;20654;-84
2022/09/14 02:50:23;;;;;;;7.20;5.37;;;;;;;20.49;97.22;97230.69;4153624;28;20639;-84
2022/09/14 02:52:32;;;;;;;5.73;4.77;;;;;;;20.46;98.29;97236.34;4132943;28;21017;-84
2022/09/14 02:54:39;;;;;;;7.77;5.40;;;;;;;20.46;99.42;97236.34;4133701;28;20731;-84
2022/09/14 02:56:43;;;;;;;6.93;5.30;;;;;;;20.48;99.83;97237.81;4151847;28;21233;-84
2022/09/14 02:58:46;;;;;;;7.60;5.70;;;;;;;20.48;98.57;97216.63;4140568;28;20631;-84
2022/09/14 03:00:50;;;;;;;6.10;5.20;;;;;;;20.50;99.18;97221.72;4169950;28;20629;-84
2022/09/14 03:02:53;;;;;;;7.47;5.20;;;;;;;20.51;99.52;97215.44;4138714;28;20695;-84
2022/09/14 03:04:57;;;;;;;8.53;6.00;;;;;;;20.50;100.00;97213.78;4153203;28;20631;-84
2022/09/14 03:07:01;;;;;;;9.00;6.67;;;;;;;20.48;100.00;97216.63;4154083;28;20700;-84
2022/09/14 03:09:04;;;;;;;6.90;5.63;;;;;;;20.48;100.00;97216.63;4148499;28;20653;-85
2022/09/14 03:11:07;;;;;;;7.50;5.40;;;;;;;20.49;100.00;97205.03;4137744;28;20632;-84
2022/09/14 03:13:11;;;;;;;6.20;5.20;;;;;;;20.49;100.00;97199.72;4141825;28;20738;-84
2022/09/14 03:15:14;;;;;;;6.00;5.40;;;;;;;20.49;100.00;97205.03;4161313;28;20642;-84
2022/09/14 03:17:17;;;;;;;6.30;4.67;;;;;;;20.52;100.00;97204.66;4151746;28;20632;-84
2022/09/14 03:19:20;;;;;;;6.20;4.90;;;;;;;20.51;100.00;97192.41;4149245;28;21105;-84
2022/09/14 03:21:23;;;;;;;5.00;4.60;;;;;;;20.51;99.71;97189.75;4148890;28;20674;-84
2022/09/14 03:23:28;;;;;;;6.73;5.00;;;;;;;20.50;100.00;97193.41;4155117;28;21627;-84
2022/09/14 03:25:31;;;;;;;6.00;5.40;;;;;;;20.48;100.00;97184.81;4135647;28;21397;-84
2022/09/14 03:27:34;;;;;;;7.50;5.40;;;;;;;20.50;100.00;97187.28;4141597;28;20639;-84
2022/09/14 03:29:37;;;;;;;5.80;5.03;;;;;;;20.49;100.00;97173.22;4140279;28;21185;-84
2022/09/14 03:31:40;;;;;;;5.67;5.07;;;;;;;20.48;100.00;97171.56;4168511;28;20752;-84
2022/09/14 03:33:43;;;;;;;6.03;5.37;;;;;;;20.48;100.00;97170.75;4134721;28;20723;-84
2022/09/14 03:35:46;;;;;;;7.47;6.20;;;;;;;20.46;100.00;97170.94;4148875;28;22057;-84
2022/09/14 03:37:49;;;;;;;6.17;5.57;;;;;;;20.44;100.00;97175.59;4134573;28;20726;-84
2022/09/14 03:39:53;;;;;;;5.93;5.33;;;;;;;20.44;100.00;97177.44;4150398;28;20650;-84
2022/09/14 03:41:56;;;;;;;7.20;6.03;;;;;;;20.45;100.00;97181.72;4148074;28;20631;-84
2022/09/14 03:43:59;;;;;;;6.17;5.57;;;;;;;20.44;100.00;97167.66;4138710;28;20662;-84
2022/09/14 03:46:05;;;;;;;5.80;5.30;;;;;;;20.45;100.00;97166.66;4145265;28;20635;-84
2022/09/14 03:48:10;;;;;;;5.90;5.30;;;;;;;20.44;100.00;97175.59;4137985;28;20656;-84
2022/09/14 03:50:14;;;;;;;6.00;5.47;;;;;;;20.43;100.00;97184.56;4133439;28;20698;-84
2022/09/14 03:52:17;;;;;;;5.70;5.00;;;;;;;20.43;100.00;97181.06;4140717;28;20639;-84
2022/09/14 03:54:20;;;;;;;6.40;5.50;;;;;;;20.42;100.00;97166.22;4166484;28;20772;-84
2022/09/14 03:56:25;;;;;;;7.20;5.40;;;;;;;20.42;100.00;97160.91;4152349;28;21064;-84
2022/09/14 03:58:31;;;;;;;7.17;5.80;;;;;;;20.42;100.00;97153.78;4139002;28;20639;-84
2022/09/14 04:00:35;;;;;;;6.60;5.57;;;;;;;20.42;100.00;97153.78;4138408;28;20646;-84
2022/09/14 04:02:38;;;;;;;5.73;4.97;;;;;;;20.41;100.00;97165.38;4156382;28;20639;-84
2022/09/14 04:04:41;;;;;;;6.03;5.40;;;;;;;20.39;100.00;97159.44;4158159;28;20652;-84
2022/09/14 04:06:44;;;;;;;6.03;5.43;;;;;;;20.39;100.00;97156.00;4135431;28;21280;-84
2022/09/14 04:08:47;;;;;;;6.60;5.30;;;;;;;20.37;100.00;97152.69;4146645;28;21333;-84
2022/09/14 04:10:50;;;;;;;6.20;5.60;;;;;;;20.36;100.00;97151.88;4169365;28;20651;-84
2022/09/14 04:12:55;;;;;;;8.50;5.73;;;;;;;20.35;100.00;97160.81;4138381;28;20626;-84
2022/09/14 04:14:58;;;;;;;7.77;6.27;;;;;;;20.36;100.00;97156.34;4155300;28;20632;-84
2022/09/14 04:17:01;;;;;;;9.50;5.90;;;;;;;20.35;100.00;97160.00;4139600;28;20729;-84
2022/09/14 04:19:05;;;;;;;6.93;5.43;;;;;;;20.34;100.00;97145.94;4168732;28;20735;-84
2022/09/14 04:21:10;;;;;;;7.03;5.90;;;;;;;20.33;100.00;97133.69;4139411;28;20627;-84
2022/09/14 04:23:13;;;;;;;8.07;5.80;;;;;;;20.31;100.00;97132.25;4169675;28;20705;-85
2022/09/14 04:25:16;;;;;;;8.50;5.70;;;;;;;20.29;100.00;97122.84;4136617;28;20719;-84
2022/09/14 04:27:19;;;;;;;6.27;5.67;;;;;;;20.28;100.00;97124.66;4138822;28;20634;-84
2022/09/14 04:29:23;;;;;;;7.77;6.37;;;;;;;20.25;100.00;97127.72;4136321;28;20663;-84
2022/09/14 04:31:26;;;;;;;7.20;6.57;;;;;;;20.26;100.00;97129.34;4156539;28;20688;-84
2022/09/14 04:33:31;;;;;;;7.43;6.53;;;;;;;20.26;100.00;97120.59;4153665;28;23957;-84
2022/09/14 04:35:36;;;;;;;6.80;6.20;;;;;;;20.26;100.00;97124.03;4149598;28;20661;-84
2022/09/14 04:37:39;;;;;;;7.07;6.37;;;;;;;20.26;100.00;97117.94;4132684;28;20730;-84
2022/09/14 04:39:42;;;;;;;8.70;7.03;;;;;;;20.26;100.00;97124.03;4158723;28;20629;-84
2022/09/14 04:41:46;;;;;;;8.40;6.37;;;;;;;20.25;100.00;97126.88;4169754;28;21064;-84
2022/09/14 04:43:50;;;;;;;6.60;5.90;;;;;;;20.25;100.00;97122.44;4148855;28;21170;-83
2022/09/14 04:46:02;;;;;;;6.27;5.50;;;;;;;20.24;100.00;97115.47;4149078;28;20646;-86
2022/09/14 04:48:05;;;;;;;6.33;5.73;;;;;;;20.24;100.00;97125.25;4159038;28;20633;-87
2022/09/14 04:50:09;;;;;;;6.33;5.67;;;;;;;20.24;100.00;97117.31;4133407;28;21051;-85
2022/09/14 04:52:13;;;;;;;7.70;5.87;;;;;;;20.27;100.00;97124.88;4165911;28;21431;-86
2022/09/14 04:54:17;;;;;;;6.60;6.00;;;;;;;20.26;100.00;97117.94;4136401;28;20647;-86
2022/09/14 04:56:22;;;;;;;7.30;6.60;;;;;;;20.28;100.00;97129.16;4146678;28;20656;-86
2022/09/14 04:58:25;;;;;;;6.70;6.10;;;;;;;20.28;100.00;97127.31;4152691;28;20621;-85
2022/09/14 05:00:28;;;;;;;7.10;5.50;;;;;;;20.30;100.00;97127.13;4139495;28;21055;-85
2022/09/14 05:02:33;;;;;;;6.33;5.50;;;;;;;20.31;100.00;97131.44;4132814;28;20678;-85
2022/09/14 05:04:36;;;;;;;7.00;6.27;;;;;;;20.32;100.00;97126.75;4135078;28;20649;-85
2022/09/14 05:06:41;;;;;;;7.40;5.97;;;;;;;20.34;100.00;97129.22;4144700;28;20712;-85
2022/09/14 05:08:44;;;;;;;6.50;5.70;;;;;;;20.35;100.00;97118.44;4132381;28;21068;-88
2022/09/14 05:10:47;;;;;;;8.60;5.93;;;;;;;20.35;100.00;97121.06;4152548;28;20666;-92
2022/09/14 05:12:50;;;;;;;5.90;5.33;;;;;;;20.35;100.00;97118.44;4138328;28;20639;-88
2022/09/14 05:14:54;;;;;;;6.53;5.93;;;;;;;20.33;100.00;97133.69;4161056;28;20651;-87
2022/09/14 05:17:00;;;;;;;8.27;6.70;;;;;;;20.26;100.00;97149.72;4151592;28;20672;-88
2022/09/14 05:19:06;;;;;;;8.67;7.40;;;;;;;20.16;100.00;97165.06;4154777;28;20677;-88
2022/09/14 05:21:10;;;;;;;7.70;6.90;;;;;;;20.07;100.00;97172.31;4137771;28;20634;-88
2022/09/14 05:23:13;;;;;;;7.70;6.90;;;;;;;20.00;100.00;97176.72;4156448;28;20633;-88
2022/09/14 05:25:16;;;;;;;8.60;6.90;;;;;;;19.99;100.00;97164.47;4154883;28;20650;-88
2022/09/14 05:27:19;;;;;;;7.83;6.40;;;;;;;20.00;100.00;97165.31;4144961;28;20642;-87
2022/09/14 05:29:22;;;;;;;6.57;5.50;;;;;;;20.01;100.00;97182.81;4170026;28;20695;-88
2022/09/14 05:31:26;;;;;;;7.30;6.70;;;;;;;20.01;100.00;97188.13;4143058;28;20651;-89
2022/09/14 05:33:29;;;;;;;6.53;5.80;;;;;;;20.04;100.00;97177.16;4148107;28;20634;-88
2022/09/14 05:35:34;;;;;;;6.30;5.70;;;;;;;20.06;100.00;97170.69;4140301;28;20622;-89
2022/09/14 05:37:37;;;;;;;6.77;6.17;;;;;;;20.08;100.00;97166.00;4136472;28;20697;-85
2022/09/14 05:39:40;;;;;;;6.63;6.03;;;;;;;20.11;100.00;97170.94;4150482;28;20641;-86
2022/09/14 05:41:43;;;;;;;6.47;5.87;;;;;;;20.13;100.00;97162.81;4148653;28;20699;-87
2022/09/14 05:43:46;;;;;;;5.33;4.83;;;;;;;20.15;100.00;97155.50;4153118;28;20737;-87
2022/09/14 05:45:49;;;;;;;7.43;6.70;;;;;;;20.18;100.00;97160.44;4152072;28;20672;-87
2022/09/14 05:47:52;;;;;;;6.07;5.27;;;;;;;20.20;100.00;97155.75;4139293;28;20662;-88
2022/09/14 05:49:55;;;;;;;10.50;9.40;;;;;;;20.21;100.00;97162.72;4154542;28;20693;-88
2022/09/14 05:51:59;;;;;;;7.80;5.50;;;;;;;20.23;100.00;97166.00;4155120;28;20669;-88
2022/09/14 05:54:08;;;;;;;5.83;5.33;;;;;;;20.27;100.00;97160.13;4151943;28;20654;-88
2022/09/14 05:56:12;;;;;;;6.90;5.60;;;;;;;20.29;100.00;97166.06;4129482;28;20619;-87
2022/09/14 05:58:16;;;;;;;6.33;5.70;;;;;;;20.31;100.00;97156.09;4148572;28;21215;-89
2022/09/14 06:00:20;;;;;;;6.17;5.47;;;;;;;20.33;100.00;97159.38;4149734;28;21507;-89
2022/09/14 06:02:23;;;;;;;6.37;5.70;;;;;;;20.34;100.00;97164.50;4140833;28;20632;-89
2022/09/14 06:04:26;;;;;;;6.07;5.47;;;;;;;20.34;100.00;97164.50;4135541;28;20642;-90
2022/09/14 06:06:31;;;;;;;5.87;5.37;;;;;;;20.34;100.00;97164.50;4132096;28;20733;-90
2022/09/14 06:08:36;;;;;;;14.80;13.30;;;;;;;20.35;100.00;97158.16;4124976;28;20631;-89
2022/09/14 06:10:39;;;;;;;8.67;7.27;;;;;;;20.36;100.00;97156.34;4146979;28;20660;-89
2022/09/14 06:12:42;;;;;;;7.10;5.60;;;;;;;20.38;100.00;97154.34;4135454;28;21021;-89
2022/09/14 06:14:45;;;;;;;9.13;6.00;;;;;;;20.39;100.00;97148.03;4125917;28;20731;-89
2022/09/14 06:16:48;;;;;;;6.40;5.77;;;;;;;20.41;100.00;97149.47;4130750;28;20643;-89
2022/09/14 06:18:51;;;;;;;9.40;5.80;;;;;;;20.44;100.00;97135.84;4139187;28;21253;-89
2022/09/14 06:20:54;;;;;;;7.30;6.10;;;;;;;20.47;100.00;97138.13;4128699;28;20748;-90
2022/09/14 06:22:57;;;;;;;7.40;6.30;;;;;;;20.51;100.00;97143.88;4128922;28;20638;-90
2022/09/14 06:25:02;;;;;;;6.83;6.03;;;;;;;20.56;100.00;97152.88;4128711;28;20632;-90
2022/09/14 06:27:07;;;;;;;6.97;6.17;;;;;;;20.61;100.00;97155.81;4147720;28;20641;-90
2022/09/14 06:29:10;;;;;;;10.50;6.60;;;;;;;20.63;100.00;97159.09;4146928;28;20637;-89
2022/09/14 06:31:16;;;;;;;7.93;5.93;;;;;;;20.65;100.00;97156.25;4131631;28;20741;-90
2022/09/14 06:33:20;;;;;;;5.83;5.23;;;;;;;20.69;100.00;97149.56;4147115;28;20680;-89
2022/09/14 06:35:23;;;;;;;7.83;7.13;;;;;;;20.70;100.00;97148.56;4144939;28;20623;-89
2022/09/14 06:37:26;;;;;;;9.17;6.63;;;;;;;20.74;100.00;97150.66;4139834;28;21268;-89
2022/09/14 06:39:29;;;;;;;6.83;6.07;;;;;;;20.77;100.00;97155.56;4170732;28;20625;-89
2022/09/14 06:41:33;;;;;;;7.77;6.43;;;;;;;20.80;100.00;97156.00;4136565;28;20626;-90
2022/09/14 06:43:38;;;;;;;6.47;5.30;;;;;;;20.83;100.00;97160.13;4139750;28;21281;-90
2022/09/14 06:45:42;;;;;;;7.87;5.77;;;;;;;20.87;100.00;97156.09;4147693;28;20648;-89
2022/09/14 06:47:45;;;;;;;5.87;5.03;;;;;;;20.90;100.00;97158.34;4133758;28;21406;-90
2022/09/14 06:49:49;;;;;;;5.33;4.83;;;;;;;20.94;100.00;97156.94;4146064;28;20650;-89
2022/09/14 06:51:54;;;;;;;7.13;5.47;;;;;;;21.02;100.00;97159.50;4143629;28;20626;-90
2022/09/14 06:53:59;;;;;;;6.40;5.80;;;;;;;21.10;100.00;97164.66;4137555;28;20646;-90
2022/09/14 06:56:03;;;;;;;5.80;5.20;;;;;;;21.15;100.00;97171.00;4154302;28;20630;-90
2022/09/14 06:58:08;;;;;;;6.37;5.20;;;;;;;21.20;100.00;97165.13;4136357;28;21324;-90
2022/09/14 07:00:12;;;;;;;6.17;5.60;;;;;;;21.24;100.00;97155.75;4157200;28;20771;-89
2022/09/14 07:02:15;;;;;;;7.03;4.97;;;;;;;21.29;100.00;97154.19;4131470;28;20682;-88
2022/09/14 07:04:19;;;;;;;5.67;5.00;;;;;;;21.32;100.00;97149.31;4131998;28;20645;-90
2022/09/14 07:06:23;;;;;;;6.33;5.00;;;;;;;21.33;100.00;97150.13;4129966;28;20656;-90
2022/09/14 07:08:28;;;;;;;5.93;5.43;;;;;;;21.36;100.00;97158.53;4126283;28;20742;-89
2022/09/14 07:10:31;;;;;;;5.53;4.80;;;;;;;21.37;100.00;97154.03;4164773;28;20642;-90
2022/09/14 07:12:34;;;;;;;6.73;6.13;;;;;;;21.39;100.00;97149.34;4139512;28;20631;-90
2022/09/14 07:14:38;;;;;;;5.83;5.33;;;;;;;21.39;100.00;97152.00;4135382;28;20719;-90
2022/09/14 07:16:41;;;;;;;10.20;5.93;;;;;;;21.36;100.00;97158.53;4142779;28;20631;-90
2022/09/14 07:18:44;;;;;;;6.37;5.57;;;;;;;21.36;100.00;97157.69;4130189;28;20692;-90
2022/09/14 07:20:48;;;;;;;6.27;5.20;;;;;;;21.39;100.00;97152.84;4149401;28;20633;-89
2022/09/14 07:22:51;;;;;;;6.37;5.70;;;;;;;21.43;100.00;97162.03;4133797;28;20631;-90
2022/09/14 07:24:54;;;;;;;5.60;5.00;;;;;;;21.51;100.00;97167.22;4139601;28;20672;-90
2022/09/14 07:26:57;;;;;;;6.30;5.37;;;;;;;21.64;100.00;97172.63;4154210;28;20691;-87
2022/09/14 07:29:02;;;;;;;6.43;5.70;;;;;;;21.79;100.00;97176.78;4153834;28;20648;-87
2022/09/14 07:31:15;;;;;;;7.93;5.83;;;;;;;21.92;100.00;97181.34;4137775;28;20662;-87
2022/09/14 07:33:18;;;;;;;6.97;6.23;;;;;;;22.07;100.00;97184.69;4152495;28;21197;-87
2022/09/14 07:35:22;;;;;;;7.03;6.10;;;;;;;22.19;100.00;97189.25;4139183;28;20631;-87
2022/09/14 07:37:25;;;;;;;8.20;5.77;;;;;;;22.38;99.61;97188.53;4141125;28;21082;-87
2022/09/14 07:39:28;;;;;;;7.20;5.70;;;;;;;22.38;99.09;97186.69;4139971;28;20640;-88
2022/09/14 07:41:32;;;;;;;7.20;6.47;;;;;;;22.38;99.82;97186.69;4147438;28;20628;-88
2022/09/14 07:43:36;;;;;;;7.00;6.33;;;;;;;22.38;100.00;97183.22;4150642;28;20734;-87
2022/09/14 07:45:39;;;;;;;7.13;6.37;;;;;;;22.36;99.23;97183.41;4134677;28;20644;-88
2022/09/14 07:47:43;;;;;;;7.57;6.87;;;;;;;22.46;100.00;97194.50;4156556;28;20650;-88
2022/09/14 07:49:46;;;;;;;7.30;6.60;;;;;;;22.57;100.00;97199.22;4134443;28;20627;-88
2022/09/14 07:51:49;;;;;;;8.10;6.73;;;;;;;22.63;100.00;97197.59;4139232;28;20722;-88
2022/09/14 07:53:53;;;;;;;9.70;6.80;;;;;;;22.68;99.26;97198.63;4157988;28;20645;-88
2022/09/14 07:56:00;;;;;;;7.60;6.63;;;;;;;22.65;98.97;97207.00;4134228;28;20677;-88
2022/09/14 07:58:03;;;;;;;7.00;6.30;;;;;;;22.59;98.12;97201.69;4133170;28;20694;-88
2022/09/14 08:00:08;;;;;;;9.87;6.50;;;;;;;22.54;99.14;97210.25;4169289;28;20638;-89
2022/09/14 08:02:13;;;;;;;8.90;7.60;;;;;;;22.52;100.00;97207.00;4148006;28;20691;-87
2022/09/14 08:04:18;;;;;;;8.83;7.90;;;;;;;22.54;100.00;97210.25;4167076;28;20674;-84
2022/09/14 08:06:23;;;;;;;9.67;7.83;;;;;;;22.56;99.42;97216.19;4153581;28;20664;-86
2022/09/14 08:08:28;;;;;;;11.20;7.60;;;;;;;22.58;99.71;97200.88;4175286;28;20738;-87
2022/09/14 08:10:34;;;;;;;8.43;7.60;;;;;;;22.57;99.58;97193.91;4154402;28;20853;-87
2022/09/14 08:12:37;;;;;;;8.77;7.77;;;;;;;22.53;99.80;97192.66;4153957;28;20636;-87
2022/09/14 08:14:40;;;;;;;9.77;8.17;;;;;;;22.49;99.29;97193.25;4149635;28;21082;-84
2022/09/14 08:16:43;;;;;;;9.20;8.13;;;;;;;22.46;99.56;97196.31;4148554;28;20633;-85
2022/09/14 08:18:47;;;;;;;8.70;7.80;;;;;;;22.49;99.66;97199.41;4145266;28;21011;-85
2022/09/14 08:20:52;;;;;;;10.87;8.40;;;;;;;22.58;100.00;97210.69;4147248;28;20664;-85
2022/09/14 08:22:55;;;;;;;9.30;8.10;;;;;;;22.73;100.00;97222.78;4166490;28;20636;-85
2022/09/14 08:24:58;;;;;;;11.17;8.40;;;;;;;22.82;100.00;97225.06;4148959;28;20692;-85
2022/09/14 08:27:01;;;;;;;9.50;8.60;;;;;;;22.90;99.74;97221.41;4167049;28;21198;-85
2022/09/14 08:29:05;;;;;;;12.13;8.30;;;;;;;22.92;99.33;97224.69;4147163;28;20638;-85
2022/09/14 08:31:10;;;;;;;8.97;8.07;;;;;;;22.88;98.88;97237.56;4152141;28;20746;-85
2022/09/14 08:33:13;;;;;;;9.60;8.70;;;;;;;22.91;99.03;97245.16;4155099;28;20643;-85
2022/09/14 08:35:16;;;;;;;9.70;8.27;;;;;;;22.98;99.52;97256.66;4152220;28;21860;-85
2022/09/14 08:37:21;;;;;;;10.60;8.70;;;;;;;23.02;100.00;97257.06;4148243;28;20651;-85
2022/09/14 08:39:24;;;;;;;10.00;9.10;;;;;;;23.03;99.77;97259.50;4150212;28;20677;-85
2022/09/14 08:41:29;;;;;;;9.50;8.33;;;;;;;23.08;99.84;97257.09;4166908;28;20632;-85
2022/09/14 08:43:32;;;;;;;8.83;8.03;;;;;;;23.04;100.00;97260.34;4165430;28;20640;-85
2022/09/14 08:45:35;;;;;;;9.83;8.83;;;;;;;23.00;100.00;97251.13;4146424;28;20644;-85
2022/09/14 08:47:40;;;;;;;11.67;9.40;;;;;;;22.97;100.00;97246.19;4148826;28;21308;-85
2022/09/14 08:49:47;;;;;;;10.50;8.53;;;;;;;22.99;100.00;97236.19;4166985;28;20750;-85
2022/09/14 08:51:50;;;;;;;9.77;8.87;;;;;;;23.03;100.00;97237.41;4152294;28;21554;-85
2022/09/14 08:53:56;;;;;;;9.57;8.57;;;;;;;23.08;100.00;97257.09;4145805;28;20636;-85
2022/09/14 08:56:01;;;;;;;10.87;8.80;;;;;;;23.08;100.00;97264.22;4166211;28;20729;-85
2022/09/14 08:58:08;;;;;;;9.80;8.90;;;;;;;23.08;100.00;97274.88;4145837;28;21279;-85
2022/09/14 09:00:14;;;;;;;9.90;9.00;;;;;;;23.08;100.00;97286.34;4164390;28;20716;-85
2022/09/14 09:02:34;;;;;;;12.23;9.43;;;;;;;23.09;100.00;97284.50;4168711;28;21264;-85
2022/09/14 09:04:42;;;;;;;9.70;8.77;;;;;;;23.09;100.00;97297.81;4164891;28;21262;-85
2022/09/14 09:06:52;;;;;;;9.50;8.43;;;;;;;23.09;100.00;97292.50;4149941;28;20665;-85
2022/09/14 09:09:03;;;;;;;11.03;8.80;;;;;;;23.12;100.00;97284.91;4149698;28;20651;-86
2022/09/14 09:11:10;;;;;;;9.07;8.17;;;;;;;23.20;100.00;97282.09;4168250;28;20751;-85
2022/09/14 09:13:17;;;;;;;12.57;8.77;;;;;;;23.31;100.00;97284.94;4165641;28;20641;-85
2022/09/14 09:15:22;;;;;;;12.87;9.60;;;;;;;23.52;100.00;97271.47;4152411;28;20641;-85
2022/09/14 09:17:30;;;;;;;11.93;9.40;;;;;;;23.79;100.00;97271.28;4153826;28;21347;-85
2022/09/14 09:19:35;;;;;;;9.53;8.53;;;;;;;24.14;99.66;97270.00;4166314;28;20652;-86
2022/09/14 09:21:41;;;;;;;10.77;8.53;;;;;;;24.41;99.38;97268.94;4146818;28;20637;-85
2022/09/14 09:23:44;;;;;;;9.10;7.80;;;;;;;24.55;96.27;97267.84;4145924;28;20639;-85
2022/09/14 09:25:56;;;;;;;8.77;7.90;;;;;;;24.51;96.08;97270.13;4148771;28;20640;-86
2022/09/14 09:28:02;;;;;;;13.93;8.33;;;;;;;24.46;96.71;97264.63;4149817;28;21516;-85
2022/09/14 09:30:07;;;;;;;10.07;8.23;;;;;;;24.50;95.34;97270.34;4166388;28;21060;-85
2022/09/14 09:32:13;;;;;;;13.87;8.20;;;;;;;24.63;96.37;97275.59;4153696;28;20662;-85
2022/09/14 09:34:37;;;;;;;10.80;7.10;;;;;;;24.89;96.45;97273.66;4133614;28;21005;-85
2022/09/14 09:36:49;;;;;;;9.43;7.43;;;;;;;25.14;96.42;97276.19;4152687;28;20643;-86
2022/09/14 09:38:52;;;;;;;8.50;7.33;;;;;;;25.33;97.19;97267.25;4163813;28;20635;-86
2022/09/14 09:40:59;;;;;;;9.40;7.37;;;;;;;25.44;93.89;97263.88;4133262;28;20691;-86
2022/09/14 09:43:07;;;;;;;8.47;6.20;;;;;;;25.46;93.52;97267.16;4136857;28;20644;-86
2022/09/14 09:45:10;;;;;;;8.17;7.37;;;;;;;25.58;94.20;97259.25;4134991;28;20696;-86